Date,TemperatureHighF,TemperatureAvgF,TemperatureLowF,DewpointHighF,DewpointAvgF,DewpointLowF,HumidityHigh,HumidityAvg,HumidityLow,PressureMaxIn,PressureMinIn,WindSpeedMaxMPH,WindSpeedAvgMPH,GustSpeedMaxMPH,PrecipitationSumIn
2014-1-1,40,38,32,40,37,31,98,98,97,30.47,30.37,1,0,3,0.01
2014-1-2,43,39,35,42,38,35,98,97,92,30.38,30.18,2,0,3,0.01
2014-1-3,48,41,30,44,38,29,98,89,71,30.40,30.18,6,1,10,0.02
2014-1-4,43,34,25,36,32,24,97,91,73,30.50,30.39,5,1,9,0.00
2014-1-5,46,30,19,35,27,18,97,88,59,30.53,30.36,3,0,8,0.01
2014-1-6,41,34,26,37,32,25,97,92,81,30.39,30.29,0,0,3,0.06
2014-1-7,47,42,38,46,42,37,98,98,96,30.29,30.14,1,0,4,0.24
2014-1-8,53,48,44,50,47,43,98,95,88,30.18,29.97,5,1,12,0.34
2014-1-9,49,45,42,47,43,40,97,95,90,30.23,30.08,8,1,17,0.12
2014-1-10,52,50,46,49,47,44,97,89,76,30.31,29.92,6,1,14,0.01
2014-1-11,54,47,42,50,44,40,96,88,67,30.21,29.78,10,2,20,0.87
2014-1-12,53,47,42,50,45,41,97,93,89,30.62,30.22,5,1,13,0.32
2014-1-13,54,46,36,49,44,35,98,92,75,30.76,30.62,2,0,6,0.02
2014-1-14,44,39,33,43,38,33,98,97,93,30.78,30.67,0,0,1,0.01
2014-1-15,39,37,34,38,36,34,98,98,97,30.69,30.57,4,0,4,0.01
2014-1-16,39,36,34,37,35,33,98,96,92,30.58,30.40,2,0,3,0.00
2014-1-17,37,35,32,35,34,32,98,97,92,30.40,30.31,1,0,2,0.01
2014-1-18,36,33,31,35,32,31,98,98,95,30.41,30.29,1,0,5,0.01
2014-1-19,38,33,30,36,33,30,98,97,92,30.36,30.27,3,0,5,0.00
2014-1-20,46,36,31,39,34,30,98,94,79,30.41,30.35,2,0,4,0.00
2014-1-21,36,32,29,35,32,28,98,97,93,30.49,30.39,3,0,4,0.00
2014-1-22,51,41,34,45,38,33,98,92,77,30.49,30.39,8,1,13,0.01
2014-1-23,54,42,32,38,34,30,94,74,54,30.41,30.30,11,2,19,0.00
2014-1-24,55,41,29,35,31,27,91,69,46,30.45,30.34,6,0,11,0.00
2014-1-25,50,35,25,35,30,24,95,81,56,30.50,30.35,3,0,7,0.00
2014-1-26,50,35,25,38,31,24,97,86,58,30.35,30.17,2,0,4,0.00
2014-1-27,40,36,30,36,32,29,96,87,73,30.35,30.21,4,0,5,0.01
2014-1-28,41,39,37,41,38,35,98,94,89,30.36,30.09,1,0,3,0.44
2014-1-29,57,49,41,49,45,40,99,87,74,30.11,29.93,8,2,17,0.06
2014-1-30,53,44,38,43,39,37,97,82,59,30.13,30.06,4,0,9,0.08
2014-1-31,47,41,37,43,39,36,97,92,80,30.28,30.14,6,0,8,0.13
2014-2-1,52,42,37,42,38,35,98,86,62,30.29,30.10,3,0,6,0.00
2014-2-2,47,39,31,39,36,30,97,87,72,30.10,30.03,2,0,6,0.00
2014-2-3,49,38,31,40,34,30,98,87,52,30.25,30.10,5,0,8,0.04
2014-2-4,36,34,30,36,32,22,97,89,72,30.39,30.24,6,1,11,0.00
2014-2-5,35,28,22,22,15,8,74,59,46,30.44,30.26,8,3,14,0.00
2014-2-6,24,21,19,21,16,8,93,81,53,30.25,29.83,8,2,12,0.00
2014-2-7,28,23,19,27,22,17,96,93,91,30.02,29.73,2,0,5,0.00
2014-2-8,32,30,28,31,29,27,98,97,96,30.07,29.82,0,0,0,0.00
2014-2-9,36,33,31,35,32,30,98,98,97,30.21,30.08,0,0,4,0.40
2014-2-10,48,39,32,45,38,32,98,96,90,30.31,30.21,2,0,6,0.51
2014-2-11,47,43,39,46,42,39,99,98,95,30.30,29.90,4,0,10,1.02
2014-2-12,54,51,46,54,51,46,99,98,96,30.05,29.86,12,1,17,0.48
2014-2-13,56,50,43,51,46,42,98,89,70,30.26,29.89,4,0,6,0.36
2014-2-14,55,50,46,52,49,44,99,94,81,30.09,29.85,3,0,11,0.87
2014-2-15,51,45,42,50,44,38,98,95,84,30.02,29.56,5,0,14,0.83
2014-2-16,51,45,38,45,41,37,96,85,71,30.20,29.93,7,2,16,0.19
2014-2-17,53,47,42,48,43,40,95,86,67,30.15,29.92,15,2,21,0.60
2014-2-18,50,46,37,49,44,36,97,92,87,30.17,29.88,11,2,17,0.90
2014-2-19,48,42,36,43,40,35,98,92,79,30.37,30.15,7,0,14,0.34
2014-2-20,48,45,42,46,44,41,98,94,91,30.39,30.33,5,0,12,0.24
2014-2-21,57,46,38,45,41,36,99,85,55,30.41,30.31,4,0,5,0.00
2014-2-22,54,42,32,41,36,30,97,81,54,30.32,30.15,3,0,6,0.00
2014-2-23,49,40,30,46,38,29,98,93,80,30.16,30.06,4,0,6,0.06
2014-2-24,61,51,46,55,49,45,98,93,78,30.12,30.06,6,0,10,0.39
2014-2-25,55,46,40,45,40,34,94,78,60,30.11,30.01,7,2,12,0.00
2014-2-26,53,44,39,39,35,33,78,71,59,30.02,29.74,7,1,12,0.00
2014-2-27,51,44,40,48,41,34,97,89,72,29.84,29.71,3,0,6,0.18
2014-2-28,61,48,42,50,45,41,97,88,64,29.78,29.48,5,1,9,0.00
2014-3-1,55,46,42,52,45,41,98,93,79,29.84,29.58,1,0,5,0.14
2014-3-2,55,48,42,53,46,42,99,92,81,29.97,29.77,7,0,14,0.38
2014-3-3,61,52,44,56,50,43,97,91,72,30.08,29.87,9,1,10,0.43
2014-3-4,64,53,43,53,49,43,98,87,65,30.14,29.94,7,0,8,0.02
2014-3-5,58,55,52,57,53,46,98,94,77,29.93,29.60,8,1,13,1.60
2014-3-6,55,50,46,51,48,46,98,91,78,30.28,29.73,12,1,23,0.64
2014-3-7,65,52,43,50,46,42,97,83,52,30.39,30.20,3,0,7,0.00
2014-3-8,57,49,40,53,47,40,98,92,76,30.22,29.98,4,0,10,0.47
2014-3-9,62,55,49,57,53,48,98,94,76,30.14,30.03,4,0,6,0.66
2014-3-10,56,48,38,48,44,37,98,84,60,30.60,30.11,7,1,13,0.03
2014-3-11,58,44,32,44,39,31,98,83,57,30.65,30.46,10,1,12,0.00
2014-3-12,67,48,33,44,38,32,98,73,31,30.46,30.25,6,0,8,0.00
2014-3-13,63,48,34,47,42,33,98,81,51,30.26,30.16,2,0,5,0.01
2014-3-14,64,53,44,52,46,41,97,80,47,30.42,30.16,3,0,8,0.26
2014-3-15,67,51,38,53,46,37,98,84,59,30.44,30.36,3,0,10,0.00
2014-3-16,63,51,42,51,46,41,98,84,61,30.44,30.09,8,0,16,0.37
2014-3-17,54,44,36,41,36,32,97,76,46,30.50,30.24,6,1,12,0.02
2014-3-18,57,45,33,42,38,32,97,78,55,30.49,30.25,7,1,13,0.00
2014-3-19,57,45,34,46,40,33,98,84,63,30.39,30.23,5,0,10,0.01
2014-3-20,55,42,30,41,34,29,98,77,45,30.48,30.39,7,1,9,0.00
2014-3-21,56,44,32,38,34,29,93,68,40,30.41,30.29,9,1,12,0.00
2014-3-22,62,46,30,37,33,28,93,64,28,30.39,30.27,6,1,11,0.00
2014-3-23,64,47,32,42,36,30,96,69,31,30.40,30.27,5,0,6,0.00
2014-3-24,73,52,34,50,40,33,98,70,31,30.27,29.98,3,0,8,0.00
2014-3-25,57,50,46,49,45,36,94,83,54,29.99,29.79,9,1,23,0.55
2014-3-26,53,47,44,48,44,42,95,89,79,29.78,29.66,8,1,15,0.41
2014-3-27,59,49,43,49,45,42,95,86,64,30.02,29.72,6,1,13,0.42
2014-3-28,53,50,46,51,48,45,97,95,90,30.00,29.85,7,1,14,1.22
2014-3-29,58,49,44,51,46,42,98,88,67,30.04,29.90,13,2,20,0.71
2014-3-30,55,46,38,46,42,37,97,86,62,30.13,30.05,8,0,11,0.17
2014-3-31,50,43,34,46,41,34,98,92,77,30.04,29.76,2,0,7,0.17
2014-4-1,56,47,40,45,42,39,98,86,55,30.04,29.84,1,0,4,0.09
2014-4-2,63,50,42,47,44,41,98,81,47,30.16,30.05,4,0,8,0.00
2014-4-3,57,47,39,45,42,38,97,84,56,30.12,30.05,4,0,13,0.07
2014-4-4,60,51,44,47,44,40,97,79,48,30.10,30.05,6,0,9,0.10
2014-4-5,55,51,47,52,48,44,94,88,80,30.28,30.10,4,0,13,0.04
2014-4-6,68,56,48,55,51,47,95,83,56,30.41,30.28,4,0,8,0.02
2014-4-7,75,54,43,58,49,42,98,84,52,30.39,30.20,1,0,5,0.00
2014-4-8,72,54,42,56,48,41,98,82,51,30.29,30.16,5,0,7,0.02
2014-4-9,64,55,47,52,44,32,96,69,31,30.34,30.23,6,1,12,0.02
2014-4-10,67,54,41,43,39,29,90,62,27,30.33,30.16,6,1,14,0.00
2014-4-11,68,56,44,48,44,40,86,67,40,30.21,30.07,6,1,11,0.00
2014-4-12,65,53,43,45,42,39,87,69,44,30.20,30.10,7,1,10,0.00
2014-4-13,74,58,39,44,39,33,94,56,24,30.30,30.16,10,1,14,0.00
2014-4-14,73,56,39,46,39,31,89,57,34,30.32,30.16,5,0,8,0.00
2014-4-15,60,51,40,44,41,36,96,70,47,30.36,30.23,4,0,6,0.00
2014-4-16,63,54,47,49,46,42,91,74,54,30.26,30.10,4,0,7,0.00
2014-4-17,56,50,41,52,48,40,97,93,82,30.15,29.98,5,0,11,0.50
2014-4-18,62,48,36,47,40,35,98,77,38,30.24,29.97,8,0,11,0.01
2014-4-19,61,48,38,51,44,37,97,84,56,30.35,29.94,8,1,17,0.02
2014-4-20,66,52,36,49,44,36,98,77,52,30.39,30.22,4,0,6,0.00
2014-4-21,67,52,45,51,46,42,96,82,41,30.22,29.99,4,0,7,0.30
2014-4-22,57,49,42,46,43,40,97,81,58,30.09,30.00,5,1,14,0.16
2014-4-23,55,50,44,52,47,42,96,89,75,30.11,29.87,7,2,17,0.56
2014-4-24,59,52,45,51,47,42,97,86,55,30.03,29.83,11,1,17,0.85
2014-4-25,57,47,41,47,43,40,97,88,62,30.01,29.95,7,0,10,0.40
2014-4-26,57,46,35,46,41,35,98,85,55,30.01,29.84,6,1,12,0.21
2014-4-27,58,48,40,48,44,39,97,85,55,30.29,29.86,5,1,13,0.33
2014-4-28,66,51,37,48,43,36,98,76,42,30.43,30.30,2,0,6,0.01
2014-4-29,79,60,41,53,47,40,98,67,36,30.53,30.34,6,1,12,0.00
2014-4-30,88,70,55,51,44,37,54,41,23,30.38,30.08,8,2,11,0.00
2014-5-1,90,70,48,59,48,39,90,48,23,30.15,30.06,6,1,10,0.00
2014-5-2,73,59,46,56,50,43,95,73,49,30.18,30.06,7,1,8,0.00
2014-5-3,61,54,47,52,48,45,94,82,62,30.11,29.90,9,0,17,0.24
2014-5-4,61,54,50,52,49,47,95,83,67,30.05,29.92,8,1,16,0.09
2014-5-5,65,54,44,52,46,41,98,77,43,30.17,30.05,6,0,8,0.08
2014-5-6,66,54,42,49,44,36,97,72,38,30.18,30.09,3,0,9,0.00
2014-5-7,67,52,36,46,41,35,97,71,38,30.16,30.01,2,0,6,0.00
2014-5-8,59,52,48,56,50,44,96,91,80,30.03,29.82,6,0,11,0.47
2014-5-9,58,51,46,52,47,44,96,88,69,30.18,30.01,4,0,16,0.40
2014-5-10,64,52,44,49,46,43,97,80,54,30.38,30.18,3,0,12,0.12
2014-5-11,68,54,40,49,45,39,98,74,43,30.43,30.30,5,0,9,0.00
2014-5-12,79,62,42,52,44,38,97,60,26,30.38,30.27,5,1,11,0.00
2014-5-13,84,67,46,51,45,38,87,49,27,30.37,30.27,5,1,10,0.00
2014-5-14,91,72,50,59,52,45,89,53,32,30.30,30.10,5,1,8,0.00
2014-5-15,82,67,53,61,54,43,97,68,33,30.21,30.10,6,0,8,0.00
2014-5-16,73,59,46,55,50,45,97,74,49,30.25,30.16,3,0,8,0.00
2014-5-17,72,59,51,55,50,48,95,75,47,30.20,29.95,4,0,10,0.20
2014-5-18,64,55,52,56,52,50,96,90,64,30.04,29.95,3,0,10,0.86
2014-5-19,72,60,51,54,51,48,96,75,44,30.12,30.03,3,0,10,0.15
2014-5-20,76,62,47,55,51,45,97,72,47,30.23,30.12,5,1,12,0.00
2014-5-21,76,61,48,56,51,45,92,71,45,30.26,30.15,5,1,9,0.00
2014-5-22,83,67,51,61,56,49,92,68,43,30.19,30.04,5,0,9,0.00
2014-5-23,71,63,57,60,57,54,95,82,61,30.23,30.07,3,0,5,0.08
2014-5-24,71,62,54,54,52,50,91,72,48,30.29,30.18,4,0,7,0.00
2014-5-25,78,61,48,58,52,47,97,74,36,30.21,30.06,7,1,15,0.00
2014-5-26,73,62,51,54,50,45,88,67,41,30.26,30.17,4,0,10,0.01
2014-5-27,68,57,51,54,48,44,91,74,44,30.25,30.21,4,0,11,0.18
2014-5-28,68,56,48,50,47,43,93,73,45,30.34,30.23,5,1,13,0.00
2014-5-29,69,57,44,51,47,43,97,73,49,30.35,30.18,6,1,14,0.00
2014-5-30,79,61,46,55,49,43,88,67,37,30.18,29.99,5,1,9,0.00
2014-5-31,77,62,47,55,51,46,97,72,42,30.18,30.10,6,0,8,0.00
2014-6-1,74,60,48,55,51,47,96,74,44,30.20,30.03,4,1,9,0.00
2014-6-2,80,63,48,58,53,47,97,73,46,30.04,29.93,4,0,7,0.00
2014-6-3,72,59,50,53,50,48,90,72,50,30.18,30.03,6,0,7,0.00
2014-6-4,77,60,46,56,50,45,96,72,45,30.24,30.13,6,1,9,0.00
2014-6-5,78,63,48,52,46,41,81,58,30,30.24,30.10,8,1,11,0.00
2014-6-6,82,65,47,53,45,37,78,52,26,30.20,30.10,7,1,10,0.00
2014-6-7,79,66,53,57,52,44,80,61,46,30.26,30.17,6,1,13,0.00
2014-6-8,83,68,53,59,54,50,90,65,40,30.30,30.12,5,1,9,0.00
2014-6-9,78,65,55,54,52,48,85,64,42,30.23,30.11,9,2,14,0.00
2014-6-10,77,63,48,53,48,44,87,62,37,30.22,30.11,5,1,9,0.00
2014-6-11,80,65,52,55,51,47,86,63,33,30.13,29.90,3,1,9,0.00
2014-6-12,66,58,54,56,51,49,88,77,58,30.07,29.94,7,1,14,0.04
2014-6-13,66,58,48,55,51,46,94,80,60,30.29,30.06,5,0,12,0.03
2014-6-14,67,58,49,51,49,46,91,72,51,30.29,30.11,4,0,7,0.00
2014-6-15,68,58,49,55,49,45,93,75,52,30.11,29.99,7,1,12,0.00
2014-6-16,66,55,47,54,47,44,93,76,50,30.15,30.03,7,1,12,0.21
2014-6-17,64,56,48,52,50,45,94,79,63,30.26,30.15,2,0,4,0.03
2014-6-18,76,61,45,53,48,44,96,67,36,30.25,30.08,4,0,7,0.00
2014-6-19,84,63,47,57,52,46,96,69,37,30.18,30.05,8,1,12,0.00
2014-6-20,73,62,54,54,51,47,95,70,43,30.25,30.17,4,0,6,0.01
2014-6-21,77,63,50,53,47,41,82,60,29,30.20,30.06,7,1,11,0.00
2014-6-22,83,67,48,56,51,45,95,62,26,30.16,30.01,4,1,11,0.00
2014-6-23,83,65,53,58,53,45,92,67,37,30.18,30.05,3,0,8,0.03
2014-6-24,82,66,51,60,55,50,97,71,41,30.22,30.08,4,0,8,0.01
2014-6-25,73,65,57,63,60,56,95,84,66,30.08,29.91,3,0,6,0.03
2014-6-26,73,63,58,61,58,56,96,86,63,29.97,29.90,4,0,11,0.09
2014-6-27,72,63,58,62,57,55,96,83,63,30.07,29.87,8,1,14,0.40
2014-6-28,71,62,56,61,57,55,96,84,64,30.12,30.05,3,0,9,0.08
2014-6-29,70,64,60,54,54,54,79,71,56,30.24,30.23,3,0,5,0.00
2014-6-30,86,70,54,59,55,51,90,63,39,30.25,29.96,7,1,11,0.00
2014-7-1,99,77,56,61,56,50,91,52,20,29.96,29.79,5,1,10,0.00
2014-7-2,86,70,58,62,57,54,91,67,41,30.11,29.91,5,1,7,0.00
2014-7-3,76,66,56,56,54,52,89,69,46,30.19,30.09,5,1,11,0.00
2014-7-4,66,58,56,54,52,51,87,80,66,30.14,30.11,7,1,7,0.00
2014-7-6,91,79,58,62,58,55,90,51,30,30.25,30.11,6,1,10,0.00
2014-7-7,92,77,63,66,63,59,88,64,38,30.16,29.99,5,1,10,0.00
2014-7-8,93,76,61,65,61,58,89,64,35,30.09,29.99,6,1,14,0.00
2014-7-9,89,74,61,60,56,53,78,55,31,30.09,29.95,6,2,10,0.00
2014-7-10,89,71,53,60,54,44,88,59,21,30.04,29.89,6,1,8,0.00
2014-7-11,87,72,56,64,59,55,95,68,36,30.07,29.95,3,0,6,0.00
2014-7-12,94,74,56,67,60,54,94,67,34,30.17,30.06,4,0,9,0.00
2014-7-13,76,65,57,65,59,55,93,82,64,30.22,30.14,3,0,6,0.08
2014-7-14,91,73,60,66,61,57,90,69,40,30.23,30.07,3,0,8,0.00
2014-7-15,97,77,59,66,61,54,85,59,35,30.14,29.95,7,1,10,0.00
2014-7-16,96,78,60,62,58,46,92,56,20,30.08,29.95,5,1,9,0.00
2014-7-17,88,70,54,57,53,49,93,60,27,30.16,30.03,4,1,9,0.00
2014-7-18,85,69,54,59,53,47,84,58,35,30.19,30.10,6,1,10,0.00
2014-7-19,92,75,60,65,60,56,88,62,35,30.19,30.01,8,1,8,0.00
2014-7-20,76,67,61,61,57,51,91,72,54,30.07,29.99,5,0,8,0.00
2014-7-21,80,67,57,60,54,50,78,63,41,30.11,30.03,3,0,7,0.00
2014-7-22,80,67,58,63,58,53,93,74,52,30.13,30.06,2,0,5,0.13
2014-7-23,70,61,57,58,54,51,95,79,60,30.27,30.10,3,0,9,0.32
2014-7-24,74,64,56,57,54,52,89,73,49,30.37,30.25,5,0,10,0.00
2014-7-25,81,67,54,58,54,51,89,67,42,30.25,30.10,4,1,10,0.00
2014-7-26,87,70,55,60,56,50,90,64,28,30.21,30.10,6,1,10,0.00
2014-7-27,91,73,59,63,59,55,85,63,36,30.19,30.07,6,0,9,0.00
2014-7-28,95,77,58,62,59,55,94,58,26,30.16,30.04,6,1,10,0.00
2014-7-29,94,76,59,63,58,55,87,58,31,30.18,30.06,7,1,11,0.00
2014-7-30,93,75,56,61,58,53,93,60,30,30.18,30.04,7,1,12,0.00
2014-7-31,94,77,60,62,58,54,81,54,31,30.13,29.98,6,1,11,0.00
2014-8-1,94,76,62,65,61,57,95,63,33,30.08,29.94,4,0,16,0.14
2014-8-2,91,73,58,62,59,56,94,66,35,30.08,29.99,3,0,6,0.00
2014-8-3,92,74,55,65,60,54,95,65,39,30.11,29.93,8,0,9,0.00
2014-8-4,92,73,60,66,60,55,92,67,36,30.07,29.94,4,0,8,0.00
2014-8-5,87,68,52,60,54,47,95,66,26,30.19,30.07,5,0,7,0.00
2014-8-6,86,71,55,63,59,54,97,69,43,30.24,30.09,4,1,10,0.00
2014-8-7,86,72,59,58,52,42,84,55,23,30.18,30.05,6,1,9,0.00
2014-8-8,81,68,55,57,52,48,80,58,34,30.21,30.09,8,1,12,0.00
2014-8-9,87,71,55,57,54,50,84,57,29,30.20,30.05,8,2,14,0.00
2014-8-10,96,77,59,65,58,52,80,54,29,30.11,29.93,6,1,8,0.00
2014-8-11,102,83,65,67,61,58,83,51,26,29.98,29.85,9,0,9,0.00
2014-8-12,78,68,62,64,59,56,86,74,59,30.02,29.91,2,0,8,0.00
2014-8-13,81,67,55,62,58,53,95,74,50,30.10,30.02,4,0,10,0.00
2014-8-14,82,69,60,62,60,57,96,75,46,30.10,30.01,3,0,7,0.04
2014-8-15,81,69,62,62,60,59,90,73,49,30.13,30.06,3,0,6,0.00
2014-8-16,87,72,58,64,61,56,95,70,39,30.17,30.05,5,1,8,0.00
2014-8-17,91,76,63,64,61,59,88,62,36,30.16,30.01,9,1,11,0.00
2014-8-18,91,75,59,64,60,55,87,63,38,30.06,29.83,6,1,12,0.00
2014-8-19,89,74,61,62,59,57,89,64,34,29.96,29.86,5,0,15,0.00
2014-8-20,82,69,58,58,55,51,87,64,36,30.09,29.97,3,0,6,0.00